Time;durP1;ratioP1;P1;durP2;ratioP2;P2;SDS_P1;SDS_P2;PMS_P1;PMS_P2;Temp;Humidity;BMP_temperature;BMP_pressure;BME280_temperature;BME280_humidity;BME280_pressure;Samples;Min_cycle;Max_cycle;Signal;HPM_P1;HPM_P2
2022/06/09 00:01:55;;;;;;;6.07;3.72;;;;;;;26.61;42.24;100837.28;4165123;28;20041;-64
2022/06/09 00:04:13;;;;;;;6.97;3.55;;;;;;;26.62;42.39;100838.13;4164571;28;20460;-64
2022/06/09 00:06:15;;;;;;;7.30;3.95;;;;;;;26.62;42.11;100843.75;4165673;28;20465;-64
2022/06/09 00:08:18;;;;;;;4.72;3.40;;;;;;;26.61;42.14;100842.06;4164889;28;20041;-64
2022/06/09 00:10:30;;;;;;;3.63;3.17;;;;;;;26.59;41.95;100830.34;4164810;28;20489;-64
2022/06/09 00:12:33;;;;;;;4.43;3.35;;;;;;;26.58;42.10;100837.13;4164592;28;20034;-64
2022/06/09 00:14:36;;;;;;;3.88;3.38;;;;;;;26.56;42.00;100836.59;4163795;28;20042;-62
2022/06/09 00:16:38;;;;;;;4.20;3.45;;;;;;;26.57;42.02;100827.00;4164672;28;20092;-62
2022/06/09 00:18:43;;;;;;;4.38;2.97;;;;;;;26.53;42.33;100810.03;4164416;28;20103;-63
2022/06/09 00:20:44;;;;;;;5.90;3.20;;;;;;;26.56;42.07;100809.34;4164649;28;20037;-63
2022/06/09 00:22:46;;;;;;;6.63;3.42;;;;;;;26.57;42.18;100810.19;4164305;28;20103;-63
2022/06/09 00:24:50;;;;;;;3.95;3.55;;;;;;;26.56;42.25;100800.94;4159183;28;20041;-63
2022/06/09 00:26:52;;;;;;;6.03;3.53;;;;;;;26.58;42.24;100800.63;4164725;28;20037;-63
2022/06/09 00:28:54;;;;;;;9.13;3.47;;;;;;;26.55;42.26;100790.88;4164811;28;20045;-63
2022/06/09 00:30:55;;;;;;;6.72;3.53;;;;;;;26.56;42.16;100784.09;4164840;28;20099;-63
2022/06/09 00:32:56;;;;;;;5.15;3.33;;;;;;;26.55;42.15;100801.28;4164725;28;20041;-63
2022/06/09 00:34:58;;;;;;;7.68;3.90;;;;;;;26.46;42.08;100783.56;4164865;28;20469;-63
2022/06/09 00:36:59;;;;;;;5.03;3.70;;;;;;;26.55;42.20;100784.44;4164570;28;20037;-63
2022/06/09 00:39:01;;;;;;;4.20;3.75;;;;;;;26.49;42.10;100789.38;4164386;28;20045;-64
2022/06/09 00:41:02;;;;;;;6.20;3.70;;;;;;;26.53;42.07;100792.34;4170614;28;20518;-64
2022/06/09 00:43:05;;;;;;;6.25;3.80;;;;;;;26.51;41.98;100797.44;4180770;28;20150;-63
2022/06/09 00:45:33;;;;;;;4.30;3.17;;;;;;;26.52;42.06;100799.09;4180996;28;20045;-63
2022/06/09 00:47:35;;;;;;;4.13;3.72;;;;;;;26.54;41.99;100782.78;4171753;28;20437;-63
2022/06/09 00:49:40;;;;;;;6.32;3.72;;;;;;;26.53;41.93;100779.16;4182184;28;20033;-63
2022/06/09 00:51:45;;;;;;;5.68;3.88;;;;;;;26.52;42.04;100777.47;4181524;28;20106;-64
2022/06/09 00:53:50;;;;;;;4.30;3.65;;;;;;;26.52;42.04;100783.09;4181444;28;20040;-63
2022/06/09 00:55:52;;;;;;;4.80;3.15;;;;;;;26.23;42.01;100752.72;4181513;28;20099;-64
2022/06/09 00:58:05;;;;;;;5.00;3.72;;;;;;;26.52;41.67;100807.50;4165850;28;20091;-64
2022/06/09 01:00:14;;;;;;;4.65;3.22;;;;;;;26.51;41.64;100808.69;4164765;28;20034;-65
2022/06/09 01:02:18;;;;;;;4.63;3.47;;;;;;;26.52;41.87;100810.31;4164573;28;20092;-63
2022/06/09 01:04:25;;;;;;;4.38;3.15;;;;;;;26.51;41.75;100814.28;4164778;28;20099;-63
2022/06/09 01:06:49;;;;;;;5.30;3.47;;;;;;;26.49;41.87;100816.59;4164002;28;20099;-63
2022/06/09 01:09:23;;;;;;;5.03;3.35;;;;;;;26.47;41.87;100824.50;4164468;28;20123;-64
2022/06/09 01:11:25;;;;;;;4.60;3.65;;;;;;;26.50;41.92;100824.69;4131857;28;20042;-63
2022/06/09 01:13:27;;;;;;;5.15;3.65;;;;;;;26.50;41.75;100829.47;4164105;28;20468;-63
2022/06/09 01:16:07;;;;;;;5.20;3.55;;;;;;;26.48;42.04;100826.16;4164351;28;20416;-64
2022/06/09 01:18:26;;;;;;;4.28;3.08;;;;;;;26.50;42.03;100829.47;4162137;28;20045;-64
2022/06/09 01:20:53;;;;;;;4.40;3.75;;;;;;;26.49;41.88;100822.22;4164461;28;20037;-65
2022/06/09 01:23:32;;;;;;;4.28;3.88;;;;;;;26.49;42.00;100813.78;4164513;28;20091;-63
2022/06/09 01:26:00;;;;;;;3.92;3.45;;;;;;;26.47;42.25;100808.47;4164401;28;20084;-63
2022/06/09 01:28:27;;;;;;;4.38;3.97;;;;;;;26.49;41.90;100811.81;4163516;28;20041;-65
2022/06/09 01:30:54;;;;;;;4.53;3.38;;;;;;;26.49;41.72;100820.22;4164971;28;20041;-64
2022/06/09 01:33:07;;;;;;;4.93;3.80;;;;;;;26.49;41.99;100822.22;4164180;28;20107;-64
2022/06/09 01:35:31;;;;;;;4.95;4.10;;;;;;;26.47;42.04;100818.88;4146440;28;20084;-64
2022/06/09 01:37:44;;;;;;;5.68;3.58;;;;;;;26.48;41.69;100820.53;4164358;28;20095;-64
2022/06/09 01:39:52;;;;;;;6.22;4.00;;;;;;;26.47;41.80;100818.88;4164110;28;20096;-63
2022/06/09 01:41:53;;;;;;;4.60;3.72;;;;;;;26.45;42.05;100819.22;4164328;28;20041;-64
2022/06/09 01:43:56;;;;;;;4.72;3.88;;;;;;;26.46;41.92;100831.25;4163507;28;20041;-63
2022/06/09 01:46:08;;;;;;;6.15;3.63;;;;;;;26.44;42.03;100825.16;4164053;28;20389;-64
2022/06/09 01:48:18;;;;;;;7.70;4.35;;;;;;;26.36;41.94;100813.53;4161684;28;20453;-64
2022/06/09 01:50:42;;;;;;;4.03;3.63;;;;;;;26.46;42.12;100831.25;4163670;28;20045;-64
2022/06/09 01:52:45;;;;;;;5.05;3.95;;;;;;;26.47;41.90;100821.69;4163869;28;20104;-65
2022/06/09 01:54:51;;;;;;;4.40;3.97;;;;;;;26.44;41.91;100819.53;4163745;28;20041;-64
2022/06/09 01:56:55;;;;;;;5.22;4.07;;;;;;;26.44;41.78;100819.53;4163751;28;20045;-64
2022/06/09 01:59:07;;;;;;;4.35;3.95;;;;;;;26.43;41.72;100813.09;4164120;28;20049;-64
2022/06/09 02:01:12;;;;;;;4.32;3.58;;;;;;;26.40;41.84;100815.69;4163994;28;20092;-63
2022/06/09 02:03:20;;;;;;;4.18;3.75;;;;;;;26.44;41.74;100819.53;4167138;28;20045;-65
2022/06/09 02:05:26;;;;;;;3.95;3.47;;;;;;;26.43;41.55;100817.84;4165502;28;20028;-65
2022/06/09 02:07:34;;;;;;;5.22;3.53;;;;;;;26.43;41.55;100806.59;4164759;28;20057;-64
2022/06/09 02:09:40;;;;;;;3.67;3.38;;;;;;;26.43;41.75;100812.22;4163507;28;20045;-64
2022/06/09 02:11:54;;;;;;;4.05;3.58;;;;;;;26.42;41.77;100804.97;4168028;28;20041;-64
2022/06/09 02:13:57;;;;;;;5.18;3.78;;;;;;;26.40;41.62;100801.66;4181021;28;20045;-64
2022/06/09 02:16:01;;;;;;;4.53;3.38;;;;;;;26.41;41.80;100808.94;4178733;28;20029;-63
2022/06/09 02:18:10;;;;;;;4.80;4.40;;;;;;;26.40;41.40;100810.09;4180333;28;20049;-64
2022/06/09 02:20:13;;;;;;;4.40;3.42;;;;;;;26.42;41.78;100807.75;4171898;28;20522;-63
2022/06/09 02:22:15;;;;;;;3.92;3.63;;;;;;;26.35;41.51;100795.03;4176269;28;20322;-64
2022/06/09 02:24:17;;;;;;;4.05;3.60;;;;;;;26.40;41.49;100802.50;4176002;28;20038;-64
2022/06/09 02:26:22;;;;;;;4.72;4.25;;;;;;;26.40;41.56;100798.84;4168719;28;20049;-63
2022/06/09 02:28:24;;;;;;;4.03;3.63;;;;;;;26.41;41.66;100792.09;4179257;28;20097;-63
2022/06/09 02:30:25;;;;;;;3.80;3.35;;;;;;;26.37;41.63;100791.91;4167381;28;20444;-64
2022/06/09 02:32:26;;;;;;;4.88;3.70;;;;;;;26.39;41.46;100805.59;4167175;28;20104;-64
2022/06/09 02:34:28;;;;;;;5.03;3.30;;;;;;;26.38;41.78;100792.72;4167336;28;20083;-64
2022/06/09 02:36:29;;;;;;;4.22;3.83;;;;;;;26.39;41.63;100800.84;4167185;28;20045;-63
2022/06/09 02:38:31;;;;;;;4.68;3.90;;;;;;;26.39;41.64;100795.22;4171946;28;20426;-64
2022/06/09 02:40:32;;;;;;;4.22;3.83;;;;;;;26.39;41.63;100797.19;4174886;28;20114;-62
2022/06/09 02:42:36;;;;;;;4.45;3.95;;;;;;;26.38;41.81;100799.16;4182280;28;20037;-63
2022/06/09 02:44:38;;;;;;;4.93;3.80;;;;;;;26.38;41.72;100798.34;4179235;28;20045;-63
2022/06/09 02:46:43;;;;;;;4.57;3.97;;;;;;;26.38;41.54;100803.94;4168510;28;20426;-63
2022/06/09 02:48:45;;;;;;;4.20;3.80;;;;;;;26.37;41.53;100808.72;4155662;28;20099;-64
2022/06/09 02:50:52;;;;;;;5.07;3.90;;;;;;;26.36;41.59;100810.72;4173031;28;20045;-63
2022/06/09 02:52:53;;;;;;;4.47;4.07;;;;;;;26.32;41.78;100804.09;4177567;28;20049;-63
2022/06/09 02:54:55;;;;;;;5.05;3.75;;;;;;;26.35;41.83;100806.25;4178936;28;20476;-64
2022/06/09 02:56:56;;;;;;;4.55;4.00;;;;;;;26.35;41.68;100811.88;4182947;28;20033;-64
2022/06/09 02:58:58;;;;;;;5.55;3.85;;;;;;;26.37;41.88;100811.53;4179935;28;20462;-63
2022/06/09 03:01:00;;;;;;;4.95;3.97;;;;;;;26.38;41.89;100817.97;4173633;28;20114;-63
2022/06/09 03:03:04;;;;;;;5.22;3.70;;;;;;;26.35;41.87;100814.69;4165055;28;20041;-64
2022/06/09 03:05:06;;;;;;;5.13;3.85;;;;;;;26.37;41.82;100819.94;4165983;28;20566;-65
2022/06/09 03:07:07;;;;;;;5.60;4.43;;;;;;;26.36;41.79;100819.13;4176483;28;20091;-64
2022/06/09 03:09:14;;;;;;;4.18;3.70;;;;;;;26.34;41.55;100813.03;4177518;28;20103;-65
2022/06/09 03:11:16;;;;;;;5.25;3.70;;;;;;;26.35;42.01;100814.69;4181795;28;20024;-64
2022/06/09 03:13:17;;;;;;;5.03;3.72;;;;;;;26.35;41.59;100800.66;4178680;28;20658;-65
2022/06/09 03:15:22;;;;;;;3.90;3.50;;;;;;;26.35;41.87;100795.03;4180982;28;20459;-65
2022/06/09 03:17:27;;;;;;;4.55;3.72;;;;;;;26.33;41.83;100788.91;4148126;28;20496;-64
2022/06/09 03:19:29;;;;;;;5.70;4.00;;;;;;;26.33;41.60;100791.72;4166932;28;20041;-64
2022/06/09 03:21:31;;;;;;;5.18;3.95;;;;;;;26.31;41.67;100771.56;4148889;28;20096;-64
2022/06/09 03:23:32;;;;;;;4.22;3.40;;;;;;;26.33;41.59;100769.25;4165617;28;20053;-63
2022/06/09 03:25:34;;;;;;;4.97;3.60;;;;;;;26.33;42.05;100768.44;4148947;28;20046;-64
2022/06/09 03:27:35;;;;;;;4.18;3.78;;;;;;;26.34;41.91;100770.94;4170317;28;20041;-65
2022/06/09 03:29:39;;;;;;;4.95;3.85;;;;;;;26.30;41.90;100758.72;4173166;28;20476;-65
2022/06/09 03:31:41;;;;;;;4.43;3.63;;;;;;;26.34;41.72;100759.72;4153675;28;20049;-65
2022/06/09 03:33:42;;;;;;;4.35;3.95;;;;;;;26.35;41.96;100766.97;4147587;28;20050;-64
2022/06/09 03:35:44;;;;;;;4.22;3.70;;;;;;;26.34;41.63;100765.34;4166048;28;20060;-65
2022/06/09 03:37:45;;;;;;;4.90;3.80;;;;;;;26.34;41.86;100770.94;4173103;28;20049;-63
2022/06/09 03:39:46;;;;;;;4.65;3.80;;;;;;;26.33;41.70;100780.47;4181295;28;20052;-64
2022/06/09 03:41:48;;;;;;;4.78;3.92;;;;;;;26.31;41.60;100788.41;4179586;28;20086;-64
2022/06/09 03:43:49;;;;;;;4.15;3.75;;;;;;;26.25;41.39;100792.50;4171196;28;20091;-64
2022/06/09 03:45:54;;;;;;;4.43;3.65;;;;;;;26.31;41.32;100815.63;4164403;28;20072;-64
2022/06/09 03:47:55;;;;;;;4.32;3.90;;;;;;;26.30;41.38;100823.22;4164541;28;20091;-63
2022/06/09 03:49:57;;;;;;;4.22;3.63;;;;;;;26.30;41.43;100837.25;4171531;28;20049;-64
2022/06/09 03:51:58;;;;;;;4.03;3.63;;;;;;;26.23;41.60;100813.59;4181029;28;20435;-64
2022/06/09 03:53:59;;;;;;;4.55;3.85;;;;;;;26.27;41.73;100780.97;4165940;28;20443;-64
2022/06/09 03:56:04;;;;;;;4.40;3.95;;;;;;;26.28;42.06;100780.63;4170666;28;20187;-64
2022/06/09 03:58:08;;;;;;;7.35;3.70;;;;;;;26.29;41.94;100757.03;4175324;28;20033;-64
2022/06/09 04:00:16;;;;;;;4.45;3.95;;;;;;;26.29;41.97;100748.63;4168623;28;20102;-64
2022/06/09 04:02:21;;;;;;;5.95;4.05;;;;;;;26.25;42.03;100733.59;4176340;28;20037;-65
2022/06/09 04:04:22;;;;;;;;;;;;;;;26.28;41.88;100751.75;4176211;28;20469;-65
2022/06/09 04:06:25;;;;;;;5.72;4.00;;;;;;;26.30;41.85;100733.47;4170918;28;19967;-64
2022/06/09 04:08:27;;;;;;;6.35;4.05;;;;;;;26.32;41.53;100724.72;4164898;28;20067;-64
2022/06/09 04:10:31;;;;;;;5.93;3.97;;;;;;;26.32;41.81;100707.88;4165043;28;20416;-64
2022/06/09 04:12:35;;;;;;;6.72;4.13;;;;;;;26.31;41.81;100698.66;4169152;28;20095;-64
2022/06/09 04:14:37;;;;;;;9.20;4.07;;;;;;;26.30;41.44;100684.94;4166063;28;20072;-65
2022/06/09 04:16:44;;;;;;;8.70;3.80;;;;;;;26.22;41.47;100672.53;4166672;28;20143;-66
2022/06/09 04:18:45;;;;;;;8.10;3.50;;;;;;;26.26;41.59;100678.34;4180729;28;20045;-65
2022/06/09 04:20:47;;;;;;;6.45;3.75;;;;;;;26.27;41.66;100675.19;4181737;28;20040;-64
2022/06/09 04:22:48;;;;;;;7.22;4.10;;;;;;;26.27;41.51;100671.56;4171421;28;20099;-65
2022/06/09 04:24:52;;;;;;;12.13;4.70;;;;;;;26.24;41.65;100650.59;4164691;28;20115;-64
2022/06/09 04:26:54;;;;;;;4.68;3.92;;;;;;;26.24;41.63;100644.97;4164890;28;20045;-67
2022/06/09 04:28:55;;;;;;;7.43;4.07;;;;;;;26.24;41.50;100661.81;4164798;28;20099;-64
2022/06/09 04:30:59;;;;;;;9.68;3.83;;;;;;;26.23;41.58;100668.56;4164729;28;20045;-64
2022/06/09 04:33:07;;;;;;;6.70;3.47;;;;;;;26.23;41.47;100688.22;4164523;28;21240;-64
2022/06/09 04:35:09;;;;;;;6.75;3.92;;;;;;;26.24;41.39;100649.75;4175387;28;20044;-63
2022/06/09 04:37:10;;;;;;;10.00;3.75;;;;;;;26.21;41.46;100637.22;4181346;28;20094;-64
2022/06/09 04:39:12;;;;;;;5.93;3.42;;;;;;;26.18;41.29;100609.00;4181367;28;20476;-64
2022/06/09 04:41:15;;;;;;;6.97;3.80;;;;;;;26.21;41.48;100614.78;4181825;28;20037;-65
2022/06/09 04:43:16;;;;;;;9.65;4.05;;;;;;;26.19;41.66;100600.25;4181218;28;20045;-64
2022/06/09 04:45:18;;;;;;;6.65;3.78;;;;;;;26.20;41.42;100581.44;4181365;28;20436;-64
2022/06/09 04:47:19;;;;;;;5.47;4.10;;;;;;;26.19;41.60;100571.38;4177209;28;20110;-65
2022/06/09 04:49:23;;;;;;;6.22;4.07;;;;;;;26.18;41.28;100572.53;4181075;28;20124;-65
2022/06/09 04:51:26;;;;;;;5.22;3.80;;;;;;;26.18;41.28;100593.00;4180043;28;20445;-65
2022/06/09 04:53:27;;;;;;;7.05;3.78;;;;;;;26.18;41.47;100626.66;4181149;28;20090;-65
2022/06/09 04:55:29;;;;;;;3.90;3.47;;;;;;;26.16;41.32;100651.41;4181378;28;20098;-64
2022/06/09 04:57:30;;;;;;;5.13;3.20;;;;;;;26.16;41.35;100644.94;4173708;28;20033;-64
2022/06/09 04:59:32;;;;;;;4.72;3.78;;;;;;;26.14;41.23;100624.81;4164272;28;20049;-63
2022/06/09 05:01:36;;;;;;;4.53;3.38;;;;;;;26.16;41.21;100619.69;4164649;28;20041;-63
2022/06/09 05:03:40;;;;;;;6.72;3.40;;;;;;;26.16;41.68;100614.09;4164738;28;20038;-64
2022/06/09 05:05:45;;;;;;;4.82;3.40;;;;;;;26.16;41.62;100592.50;4164647;28;20084;-64
2022/06/09 05:07:46;;;;;;;7.50;3.85;;;;;;;26.13;41.46;100578.31;4163587;28;20034;-64
2022/06/09 05:09:49;;;;;;;3.95;3.35;;;;;;;26.14;41.55;100597.59;4164183;28;20500;-64
2022/06/09 05:11:53;;;;;;;5.63;3.45;;;;;;;26.15;41.55;100604.84;4163889;28;20101;-64
2022/06/09 05:13:57;;;;;;;4.80;3.20;;;;;;;26.15;41.45;100621.69;4163259;28;20439;-64
2022/06/09 05:16:00;;;;;;;3.67;3.20;;;;;;;26.11;41.54;100615.06;4165058;28;20283;-64
2022/06/09 05:18:05;;;;;;;5.82;3.40;;;;;;;26.14;41.13;100614.44;4163017;28;20034;-65
2022/06/09 05:20:07;;;;;;;7.28;3.70;;;;;;;26.13;41.49;100618.38;4164290;28;20481;-64
2022/06/09 05:22:08;;;;;;;8.98;3.47;;;;;;;26.11;41.42;100615.06;4161888;28;20041;-64
2022/06/09 05:24:11;;;;;;;5.18;3.13;;;;;;;26.12;41.36;100618.72;4164229;28;20050;-64
2022/06/09 05:26:16;;;;;;;5.28;3.30;;;;;;;26.09;41.12;100604.19;4164381;28;20496;-64
2022/06/09 05:28:19;;;;;;;4.65;3.45;;;;;;;26.11;41.37;100587.03;4163847;28;20041;-64
2022/06/09 05:30:24;;;;;;;4.78;3.78;;;;;;;26.11;41.58;100589.81;4164218;28;20477;-64
2022/06/09 05:32:30;;;;;;;4.20;3.42;;;;;;;26.10;41.33;100576.97;4178722;28;20439;-64
2022/06/09 05:34:32;;;;;;;3.92;3.53;;;;;;;26.11;41.67;100570.19;4180372;28;20029;-64
2022/06/09 05:36:33;;;;;;;4.90;3.35;;;;;;;26.09;41.66;100544.47;4179656;28;20033;-64
2022/06/09 05:45:41;;;;;;;3.35;2.95;;;;;;;26.08;41.32;100484.78;4181619;28;20534;-64
2022/06/09 05:47:46;;;;;;;3.88;3.10;;;;;;;26.05;41.31;100471.38;4181318;28;20189;-64
2022/06/09 05:49:52;;;;;;;3.55;3.10;;;;;;;25.99;41.44;100443.84;4168243;28;20092;-65
2022/06/09 05:51:53;;;;;;;6.00;3.20;;;;;;;26.08;41.18;100458.72;4167384;28;20083;-64
2022/06/09 05:53:55;;;;;;;5.90;3.08;;;;;;;26.07;41.13;100457.03;4165649;28;20042;-64
2022/06/09 05:55:59;;;;;;;5.35;3.22;;;;;;;26.05;41.42;100453.75;4167201;28;20100;-65
2022/06/09 05:58:00;;;;;;;4.75;3.92;;;;;;;26.04;41.26;100436.09;4167047;28;20481;-64
2022/06/09 06:00:03;;;;;;;3.58;3.10;;;;;;;25.98;41.51;100414.13;4167278;28;20473;-64
2022/06/09 06:02:06;;;;;;;3.80;3.08;;;;;;;26.03;41.32;100405.59;4166685;28;20099;-64
2022/06/09 06:04:10;;;;;;;3.95;3.15;;;;;;;26.05;41.75;100414.50;4167067;28;20050;-64
2022/06/09 06:08:34;;;;;;;4.78;3.50;;;;;;;25.96;41.62;100410.84;4167125;28;20456;-65
2022/06/09 06:10:35;;;;;;;6.55;3.22;;;;;;;26.06;41.50;100422.56;4166967;28;20033;-65
2022/06/09 06:12:37;;;;;;;3.47;3.17;;;;;;;26.07;41.51;100421.44;4167489;28;20109;-64
2022/06/09 06:14:42;;;;;;;3.40;3.00;;;;;;;26.05;41.55;100404.09;4166941;28;20049;-64
2022/06/09 06:16:46;;;;;;;3.80;3.38;;;;;;;26.05;40.89;100398.50;4166537;28;20067;-64
2022/06/09 06:18:48;;;;;;;3.45;3.03;;;;;;;26.05;41.26;100404.09;4166366;28;20088;-65
2022/06/09 06:20:55;;;;;;;3.75;3.30;;;;;;;26.03;41.16;100392.41;4166980;28;20041;-65
2022/06/09 06:22:59;;;;;;;3.67;2.90;;;;;;;26.02;41.40;100387.91;4165499;28;20041;-66
2022/06/09 06:25:06;;;;;;;3.70;3.37;;;;;;;26.01;41.31;100385.47;4167471;28;20026;-66
2022/06/09 06:27:07;;;;;;;4.38;3.58;;;;;;;26.03;41.11;100377.56;4165803;28;20046;-66
2022/06/09 06:29:18;;;;;;;4.43;3.53;;;;;;;26.01;41.16;100391.06;4166758;28;20068;-66
2022/06/09 06:31:20;;;;;;;4.10;2.83;;;;;;;26.02;41.06;100392.72;4166750;28;20037;-66
2022/06/09 06:33:22;;;;;;;3.00;2.70;;;;;;;25.99;41.26;100382.19;4166388;28;20844;-65
2022/06/09 06:35:24;;;;;;;3.40;2.92;;;;;;;26.00;41.00;100390.25;4166231;28;20091;-64
2022/06/09 06:37:25;;;;;;;3.60;3.30;;;;;;;26.00;41.20;100395.03;4165895;28;20095;-64
2022/06/09 06:39:26;;;;;;;3.75;3.30;;;;;;;25.93;41.00;100383.47;4166318;28;20037;-64
2022/06/09 06:41:29;;;;;;;3.00;2.70;;;;;;;25.97;40.87;100385.28;4165970;28;20033;-64
2022/06/09 06:43:32;;;;;;;4.22;2.90;;;;;;;25.96;40.72;100394.03;4166217;28;20045;-65
2022/06/09 06:45:33;;;;;;;3.42;2.65;;;;;;;25.94;40.94;100391.56;4166313;28;20042;-65
2022/06/09 06:47:39;;;;;;;3.88;3.33;;;;;;;25.95;40.83;100390.41;4165921;28;20431;-65
2022/06/09 06:49:40;;;;;;;3.22;2.80;;;;;;;25.97;40.88;100378.84;4165892;28;20095;-66
2022/06/09 06:51:41;;;;;;;3.38;2.75;;;;;;;25.92;40.94;100365.00;4166438;28;20033;-65
2022/06/09 06:53:43;;;;;;;3.95;2.80;;;;;;;25.90;40.75;100362.53;4165430;28;20041;-65
2022/06/09 06:55:44;;;;;;;3.50;3.17;;;;;;;25.96;40.67;100377.22;4166791;28;20029;-65
2022/06/09 06:57:46;;;;;;;3.63;2.63;;;;;;;25.96;40.68;100377.22;4166009;28;20099;-65
2022/06/09 06:59:47;;;;;;;3.60;3.22;;;;;;;25.94;41.07;100362.72;4165852;28;20041;-65
2022/06/09 07:01:49;;;;;;;5.25;3.33;;;;;;;25.95;40.75;100364.34;4165845;28;20049;-65
2022/06/09 07:03:50;;;;;;;3.00;2.70;;;;;;;25.95;40.88;100341.94;4166653;28;20075;-65
2022/06/09 07:05:52;;;;;;;3.38;2.75;;;;;;;25.94;40.61;100335.50;4165093;28;20049;-65
2022/06/09 07:07:53;;;;;;;4.53;3.25;;;;;;;25.95;40.80;100322.31;4165305;28;20041;-65
2022/06/09 07:09:55;;;;;;;3.35;2.83;;;;;;;25.95;40.81;100311.09;4165594;28;20049;-65
2022/06/09 07:11:56;;;;;;;5.03;2.58;;;;;;;25.85;40.90;100295.44;4165851;28;20072;-64
2022/06/09 07:13:57;;;;;;;3.75;3.00;;;;;;;25.79;41.12;100286.34;4165530;28;20555;-64
2022/06/09 07:15:59;;;;;;;6.15;2.80;;;;;;;25.92;41.35;100301.34;4164557;28;20039;-64
2022/06/09 07:18:00;;;;;;;3.38;2.60;;;;;;;25.93;41.19;100304.97;4165701;28;20103;-64
2022/06/09 07:20:03;;;;;;;3.65;3.28;;;;;;;25.94;41.35;100301.88;4148327;28;20509;-64
2022/06/09 07:22:06;;;;;;;3.70;2.60;;;;;;;25.95;41.58;100291.47;4165897;28;20041;-64
2022/06/09 07:24:08;;;;;;;4.13;3.13;;;;;;;25.95;41.18;100280.25;4165823;28;20037;-64
2022/06/09 07:26:09;;;;;;;3.10;2.80;;;;;;;25.90;41.18;100266.41;4165336;28;20037;-64
2022/06/09 07:28:14;;;;;;;3.03;2.67;;;;;;;25.95;41.13;100277.47;4165158;28;20095;-64
2022/06/09 07:30:15;;;;;;;2.50;2.30;;;;;;;25.86;41.18;100255.03;4165926;28;20045;-64
2022/06/09 07:32:18;;;;;;;3.22;2.85;;;;;;;25.96;41.46;100259.47;4165750;28;20037;-64
2022/06/09 07:34:20;;;;;;;3.00;2.65;;;;;;;25.95;41.26;100252.22;4165349;28;20432;-64
2022/06/09 07:36:24;;;;;;;2.67;2.45;;;;;;;25.95;41.42;100243.81;4165634;28;20100;-64
2022/06/09 07:38:27;;;;;;;3.80;2.70;;;;;;;25.93;41.35;100226.50;4166004;28;20033;-64
2022/06/09 07:40:28;;;;;;;3.58;2.70;;;;;;;25.83;41.47;100211.66;4165601;28;20111;-64
2022/06/09 07:42:29;;;;;;;3.17;2.55;;;;;;;25.91;41.20;100218.44;4165674;28;20076;-64
2022/06/09 07:44:31;;;;;;;3.33;2.80;;;;;;;25.92;41.34;100214.47;4165533;28;20042;-65
2022/06/09 07:46:33;;;;;;;2.90;2.55;;;;;;;25.84;41.65;100202.13;4166122;28;20057;-63
2022/06/09 07:48:34;;;;;;;3.42;2.83;;;;;;;25.89;41.67;100208.69;4165517;28;20037;-65
2022/06/09 07:50:36;;;;;;;4.40;2.70;;;;;;;25.85;41.86;100203.75;4165500;28;20108;-64
2022/06/09 07:52:40;;;;;;;3.55;3.05;;;;;;;25.95;41.42;100207.38;4166175;28;20435;-64
2022/06/09 07:54:44;;;;;;;3.95;2.50;;;;;;;25.95;41.29;100201.78;4178185;28;20029;-64
2022/06/09 07:56:45;;;;;;;4.18;3.10;;;;;;;25.94;41.45;100206.56;4182101;28;20044;-64
2022/06/09 07:58:47;;;;;;;3.53;2.70;;;;;;;25.93;41.14;100209.66;4181433;28;20029;-64
2022/06/09 08:00:53;;;;;;;4.28;2.97;;;;;;;25.89;41.48;100200.28;4181517;28;20045;-64
2022/06/09 08:02:55;;;;;;;2.53;2.30;;;;;;;25.91;41.01;100201.59;4181920;28;20033;-64
2022/06/09 08:04:56;;;;;;;3.60;2.42;;;;;;;25.92;41.36;100208.03;4182261;28;20079;-64
2022/06/09 08:06:58;;;;;;;2.72;2.53;;;;;;;25.91;41.18;100212.00;4179407;28;20123;-64
2022/06/09 08:09:03;;;;;;;3.40;2.40;;;;;;;25.91;41.18;100212.00;4181404;28;20037;-64
2022/06/09 08:11:08;;;;;;;3.20;2.80;;;;;;;25.84;41.14;100190.91;4179437;28;20103;-64
2022/06/09 08:13:13;;;;;;;3.88;2.63;;;;;;;25.87;41.45;100195.00;4181613;28;20140;-64
2022/06/09 08:15:18;;;;;;;3.97;3.05;;;;;;;25.83;41.22;100172.44;4181479;28;20041;-65
2022/06/09 08:17:23;;;;;;;3.85;2.80;;;;;;;25.92;41.38;100180.81;4181231;28;20098;-64
2022/06/09 08:19:25;;;;;;;3.17;2.63;;;;;;;25.89;41.16;100175.91;4180978;28;20032;-64
2022/06/09 08:21:30;;;;;;;3.58;2.83;;;;;;;25.87;41.29;100157.75;4163823;28;20099;-64
2022/06/09 08:23:32;;;;;;;3.20;2.80;;;;;;;25.90;41.36;100169.13;4181205;28;20040;-64
2022/06/09 08:25:33;;;;;;;2.90;2.60;;;;;;;25.91;41.19;100189.56;4173751;28;20045;-64
2022/06/09 08:27:35;;;;;;;3.30;2.85;;;;;;;25.90;41.12;100204.75;4164322;28;20530;-64
2022/06/09 08:29:37;;;;;;;3.10;2.80;;;;;;;25.89;41.17;100203.94;4164456;28;20547;-63
2022/06/09 08:31:39;;;;;;;3.17;2.55;;;;;;;25.86;41.31;100187.78;4164626;28;20037;-63
2022/06/09 08:33:44;;;;;;;3.15;2.80;;;;;;;25.90;41.34;100213.97;4165016;28;20455;-64
2022/06/09 08:35:45;;;;;;;4.25;3.15;;;;;;;25.90;41.22;100244.00;4164645;28;20033;-64
2022/06/09 08:37:48;;;;;;;4.78;3.05;;;;;;;25.89;41.23;100247.94;4164552;28;20110;-64
2022/06/09 08:39:50;;;;;;;3.28;2.50;;;;;;;25.89;41.04;100270.34;4164139;28;20037;-64
2022/06/09 08:41:54;;;;;;;3.25;2.95;;;;;;;25.88;41.28;100266.72;4164705;28;20103;-64
2022/06/09 08:44:24;;;;;;;3.13;2.80;;;;;;;25.87;41.22;100239.03;4164373;28;20476;-64
2022/06/09 08:46:37;;;;;;;2.78;2.47;;;;;;;25.89;41.42;100203.09;4164536;28;20038;-64
2022/06/09 08:48:43;;;;;;;3.72;2.80;;;;;;;25.83;41.18;100171.59;4164107;28;20041;-64
2022/06/09 08:51:04;;;;;;;2.85;2.42;;;;;;;25.78;41.35;100146.56;4146991;28;20117;-63
2022/06/09 08:53:24;;;;;;;3.33;2.72;;;;;;;25.86;41.36;100148.53;4164666;28;20041;-63
2022/06/09 08:55:32;;;;;;;2.90;2.65;;;;;;;25.86;41.13;100151.34;4163824;28;20037;-63
2022/06/09 08:57:36;;;;;;;3.75;2.58;;;;;;;25.85;41.45;100147.72;4163821;28;20111;-63
2022/06/09 08:59:39;;;;;;;3.13;2.67;;;;;;;25.84;41.05;100151.69;4164452;28;20041;-64
2022/06/09 09:01:52;;;;;;;3.03;2.35;;;;;;;25.83;41.02;100166.81;4164126;28;20278;-64
2022/06/09 09:04:01;;;;;;;3.58;2.60;;;;;;;25.82;41.15;100165.19;4164257;28;20484;-64
2022/06/09 09:06:30;;;;;;;3.28;2.58;;;;;;;25.82;41.21;100148.38;4163827;28;20432;-63
2022/06/09 09:08:31;;;;;;;3.25;2.55;;;;;;;25.81;41.18;100134.69;4163385;28;20103;-64
2022/06/09 09:10:49;;;;;;;2.50;2.30;;;;;;;25.80;41.28;100131.06;4164325;28;20099;-64
2022/06/09 09:13:04;;;;;;;2.33;2.13;;;;;;;25.82;41.13;100116.72;4163681;28;20053;-64
2022/06/09 09:15:34;;;;;;;3.45;2.17;;;;;;;25.82;41.13;100108.31;4164442;28;20071;-63
2022/06/09 09:17:36;;;;;;;6.22;2.40;;;;;;;25.81;41.35;100093.47;4150801;28;20535;-64
2022/06/09 09:19:52;;;;;;;4.07;2.50;;;;;;;25.74;41.14;100079.13;4164046;28;20037;-64
2022/06/09 09:22:01;;;;;;;2.80;2.53;;;;;;;25.80;41.42;100114.25;4163642;28;20471;-64
2022/06/09 09:24:23;;;;;;;2.88;2.50;;;;;;;25.78;41.17;100169.81;4163812;28;20084;-64
2022/06/09 09:26:39;;;;;;;2.80;2.20;;;;;;;25.80;40.95;100201.13;4164328;28;20045;-64
2022/06/09 09:28:49;;;;;;;3.03;2.38;;;;;;;25.79;40.92;100191.06;4162749;28;20489;-64
2022/06/09 09:31:16;;;;;;;2.40;2.20;;;;;;;25.79;41.00;100199.47;4164240;28;20099;-64
2022/06/09 09:33:21;;;;;;;2.78;2.42;;;;;;;25.69;40.88;100182.97;4163825;28;20042;-64
2022/06/09 09:35:24;;;;;;;;;;;;;;;25.78;40.79;100199.81;4164707;28;20139;-64
2022/06/09 09:37:28;;;;;;;3.47;2.28;;;;;;;25.83;40.93;100205.25;4164149;28;19913;-64
2022/06/09 09:39:41;;;;;;;4.50;2.20;;;;;;;25.79;41.10;100205.06;4164119;28;20042;-64
2022/06/09 09:41:44;;;;;;;2.53;2.15;;;;;;;25.81;41.07;100218.78;4164096;28;20037;-64
2022/06/09 09:43:45;;;;;;;2.80;2.50;;;;;;;25.79;41.05;100221.88;4163718;28;20424;-64
2022/06/09 09:45:50;;;;;;;3.15;2.45;;;;;;;25.76;41.35;100219.78;4164145;28;20155;-64
2022/06/09 09:48:19;;;;;;;3.05;2.50;;;;;;;25.77;41.18;100210.19;4164186;28;20042;-64
2022/06/09 09:50:45;;;;;;;2.75;2.28;;;;;;;25.78;40.90;100213.81;4146631;28;20034;-65
2022/06/09 09:52:53;;;;;;;2.92;2.40;;;;;;;25.78;40.70;100208.22;4163322;28;20119;-64
2022/06/09 09:54:55;;;;;;;2.95;2.50;;;;;;;25.77;40.87;100218.59;4164073;28;20091;-64